Time;durP1;ratioP1;P1;durP2;ratioP2;P2;SDS_P1;SDS_P2;PMS_P1;PMS_P2;Temp;Humidity;BMP_temperature;BMP_pressure;BME280_temperature;BME280_humidity;BME280_pressure;Samples;Min_cycle;Max_cycle;Signal;HPM_P1;HPM_P2
2024/01/02 00:02:10;;;;;;;2.60;1.60;;;5.50;99.90;;;;;;4994521;28;20402;-68
2024/01/02 00:04:36;;;;;;;2.03;1.60;;;5.80;99.90;;;;;;4994530;28;20117;-68
2024/01/02 00:07:02;;;;;;;2.00;1.27;;;6.30;99.90;;;;;;4994687;28;20117;-67
2024/01/02 00:09:28;;;;;;;2.42;1.27;;;5.60;99.90;;;;;;4994371;28;20034;-68
2024/01/02 00:11:54;;;;;;;2.53;1.33;;;5.60;99.90;;;;;;4994634;28;20053;-68
2024/01/02 00:14:19;;;;;;;2.25;1.35;;;5.60;99.90;;;;;;4994108;28;20059;-68
2024/01/02 00:16:45;;;;;;;2.10;1.27;;;5.70;99.90;;;;;;4994508;28;20500;-69
2024/01/02 00:19:11;;;;;;;1.30;1.20;;;5.70;99.90;;;;;;4994211;28;20141;-66
2024/01/02 00:21:37;;;;;;;1.83;0.93;;;6.10;99.90;;;;;;4994492;28;20042;-68
2024/01/02 00:24:03;;;;;;;2.55;1.23;;;5.70;99.90;;;;;;4994353;28;20117;-68
2024/01/02 00:26:29;;;;;;;1.95;1.17;;;5.70;99.90;;;;;;4994380;28;20069;-68
2024/01/02 00:28:55;;;;;;;1.98;1.38;;;5.70;99.90;;;;;;4994312;28;20453;-68
2024/01/02 00:31:20;;;;;;;1.42;1.10;;;5.70;99.90;;;;;;4994372;28;20042;-68
2024/01/02 00:33:46;;;;;;;2.38;1.45;;;5.70;99.90;;;;;;4994221;28;20100;-68
2024/01/02 00:36:12;;;;;;;1.58;1.10;;;5.70;99.90;;;;;;4993932;28;20045;-68
2024/01/02 00:38:38;;;;;;;2.45;1.33;;;5.80;99.90;;;;;;4993828;28;20042;-68
2024/01/02 00:41:04;;;;;;;1.67;1.10;;;6.30;99.90;;;;;;4994187;28;20042;-66
2024/01/02 00:43:30;;;;;;;1.00;0.90;;;5.80;99.90;;;;;;4992529;28;20052;-66
2024/01/02 00:45:57;;;;;;;1.63;1.20;;;5.80;99.90;;;;;;4993754;28;20133;-66
2024/01/02 00:48:22;;;;;;;1.42;1.00;;;5.80;99.90;;;;;;4993985;28;20072;-66
2024/01/02 00:50:48;;;;;;;1.58;1.05;;;5.80;99.90;;;;;;4993920;28;20034;-66
2024/01/02 00:53:14;;;;;;;1.40;1.10;;;6.00;99.90;;;;;;4993968;28;20137;-66
2024/01/02 00:55:39;;;;;;;1.45;1.13;;;5.80;99.90;;;;;;4993985;28;20045;-66
2024/01/02 00:58:05;;;;;;;1.33;0.98;;;6.50;99.90;;;;;;4993497;28;20084;-66
2024/01/02 01:00:31;;;;;;;1.27;0.85;;;5.70;99.90;;;;;;4992268;28;20088;-67
2024/01/02 01:02:56;;;;;;;1.10;0.90;;;5.70;99.90;;;;;;4993812;28;20398;-66
2024/01/02 01:05:22;;;;;;;1.17;1.00;;;5.70;99.90;;;;;;4993573;28;20124;-66
2024/01/02 01:07:48;;;;;;;0.95;0.90;;;5.70;99.90;;;;;;4993808;28;20030;-66
2024/01/02 01:10:13;;;;;;;1.67;1.05;;;6.10;99.90;;;;;;4993741;28;20046;-66
2024/01/02 01:12:39;;;;;;;0.80;0.80;;;5.70;99.90;;;;;;4993122;28;20570;-65
2024/01/02 01:15:05;;;;;;;0.70;0.70;;;5.70;99.90;;;;;;4993726;28;20441;-66
2024/01/02 01:17:31;;;;;;;1.70;0.95;;;5.70;99.90;;;;;;4993715;28;20064;-66
2024/01/02 01:19:56;;;;;;;1.65;0.90;;;5.70;99.90;;;;;;4993726;28;20542;-65
2024/01/02 01:22:23;;;;;;;1.17;1.00;;;5.70;99.90;;;;;;4993606;28;20046;-65
2024/01/02 01:24:49;;;;;;;1.45;1.00;;;5.90;99.90;;;;;;4993651;28;20043;-66
2024/01/02 01:27:14;;;;;;;1.00;0.90;;;5.70;99.90;;;;;;4993366;28;20088;-66
2024/01/02 01:29:40;;;;;;;1.20;1.10;;;5.70;99.90;;;;;;4993741;28;20034;-67
2024/01/02 01:32:06;;;;;;;1.73;1.08;;;5.80;99.90;;;;;;4993546;28;20153;-67
2024/01/02 01:34:32;;;;;;;1.45;1.10;;;5.70;99.90;;;;;;4993602;28;20042;-66
2024/01/02 01:36:57;;;;;;;1.48;0.85;;;6.40;99.90;;;;;;4992298;28;20494;-67
2024/01/02 01:39:23;;;;;;;1.77;1.05;;;5.80;99.90;;;;;;4993200;28;20042;-67
2024/01/02 01:41:49;;;;;;;1.30;0.90;;;5.80;99.90;;;;;;4991928;28;20050;-67
2024/01/02 01:44:15;;;;;;;1.40;0.98;;;6.10;99.90;;;;;;4993198;28;20038;-67
2024/01/02 01:46:41;;;;;;;2.22;1.30;;;5.90;99.90;;;;;;4993402;28;20034;-68
2024/01/02 01:49:09;;;;;;;1.58;1.05;;;5.90;99.90;;;;;;4992144;28;20034;-68
2024/01/02 01:51:39;;;;;;;1.35;1.20;;;5.90;99.90;;;;;;4993523;28;20505;-68
2024/01/02 01:54:05;;;;;;;3.00;1.63;;;6.50;99.90;;;;;;4993453;28;20459;-68
2024/01/02 01:56:32;;;;;;;1.42;1.10;;;5.90;99.90;;;;;;4992069;28;20050;-68
2024/01/02 01:58:58;;;;;;;1.95;1.10;;;6.00;99.90;;;;;;4993327;28;20449;-68
2024/01/02 02:01:26;;;;;;;2.25;1.30;;;6.00;99.90;;;;;;4993257;28;20126;-68
2024/01/02 02:03:52;;;;;;;1.65;0.98;;;6.00;99.90;;;;;;4993364;28;20437;-68
2024/01/02 02:06:17;;;;;;;2.00;1.20;;;6.00;99.90;;;;;;4993303;28;20042;-68
2024/01/02 02:08:43;;;;;;;1.20;0.80;;;6.00;99.90;;;;;;4993284;28;20066;-68
2024/01/02 02:11:12;;;;;;;1.30;1.05;;;6.00;99.90;;;;;;4991709;28;20116;-68
2024/01/02 02:13:38;;;;;;;1.67;1.02;;;6.10;99.90;;;;;;4992804;28;20066;-66
2024/01/02 02:16:04;;;;;;;1.63;1.00;;;6.00;99.90;;;;;;4992913;28;20061;-68
2024/01/02 02:18:30;;;;;;;2.40;1.15;;;6.00;99.90;;;;;;4993171;28;20039;-68
2024/01/02 02:20:56;;;;;;;1.55;1.15;;;6.00;99.90;;;;;;4992814;28;20054;-68
2024/01/02 02:23:21;;;;;;;2.03;1.17;;;6.00;99.90;;;;;;4991711;28;20510;-68
2024/01/02 02:25:47;;;;;;;1.52;1.25;;;6.00;99.90;;;;;;4977632;28;20117;-68
2024/01/02 02:28:13;;;;;;;1.63;1.10;;;6.30;99.90;;;;;;4996314;28;20042;-68
2024/01/02 02:30:39;;;;;;;2.55;1.30;;;6.00;99.90;;;;;;4996589;28;20041;-68
2024/01/02 02:33:04;;;;;;;3.13;1.52;;;6.30;99.90;;;;;;4996537;28;20457;-68
2024/01/02 02:35:30;;;;;;;2.58;1.20;;;6.00;99.90;;;;;;4995257;28;20375;-68
2024/01/02 02:37:56;;;;;;;3.35;1.52;;;6.10;99.90;;;;;;4996384;28;20085;-68
2024/01/02 02:40:23;;;;;;;1.95;1.35;;;6.00;99.90;;;;;;4996202;28;20105;-67
2024/01/02 02:42:48;;;;;;;1.65;1.10;;;6.10;99.90;;;;;;4996241;28;20060;-66
2024/01/02 02:45:14;;;;;;;1.73;1.17;;;6.10;99.90;;;;;;4996331;28;20038;-67
2024/01/02 02:47:40;;;;;;;1.45;1.30;;;6.10;99.90;;;;;;4996217;28;20550;-67
2024/01/02 02:50:06;;;;;;;2.35;1.10;;;6.10;99.90;;;;;;4996208;28;20038;-66
2024/01/02 02:52:33;;;;;;;1.35;1.02;;;6.10;99.90;;;;;;4995883;28;20042;-66
2024/01/02 02:54:59;;;;;;;2.10;1.45;;;6.10;99.90;;;;;;4996118;28;20045;-66
2024/01/02 02:57:24;;;;;;;2.03;1.30;;;6.50;99.90;;;;;;4996035;28;20409;-66
2024/01/02 02:59:50;;;;;;;2.67;1.55;;;6.30;99.90;;;;;;4995926;28;20117;-66
2024/01/02 03:02:17;;;;;;;1.65;1.38;;;6.10;99.90;;;;;;4995643;28;20039;-68
2024/01/02 03:04:43;;;;;;;2.63;1.27;;;6.10;99.90;;;;;;4995699;28;20492;-68
2024/01/02 03:07:12;;;;;;;1.55;1.23;;;6.00;99.90;;;;;;4995830;28;20039;-68
2024/01/02 03:09:38;;;;;;;2.22;1.45;;;6.10;99.90;;;;;;4995858;28;20093;-68
2024/01/02 03:12:04;;;;;;;2.00;1.33;;;6.10;99.90;;;;;;4995328;28;20042;-67
2024/01/02 03:14:30;;;;;;;2.10;1.60;;;6.00;99.90;;;;;;4995618;28;20049;-68
2024/01/02 03:16:56;;;;;;;1.85;1.35;;;6.70;99.90;;;;;;4995434;28;20046;-68
2024/01/02 03:19:21;;;;;;;1.30;1.20;;;6.10;99.90;;;;;;4995753;28;20509;-68
2024/01/02 03:21:47;;;;;;;1.52;1.30;;;6.10;99.90;;;;;;4995228;28;20046;-68
2024/01/02 03:24:13;;;;;;;1.13;1.00;;;6.40;99.90;;;;;;4995512;28;20470;-68
2024/01/02 03:26:38;;;;;;;1.30;1.13;;;6.10;99.90;;;;;;4995449;28;20035;-67
2024/01/02 03:29:04;;;;;;;1.65;1.00;;;6.30;99.90;;;;;;4995156;28;20120;-68
2024/01/02 03:31:30;;;;;;;2.30;1.33;;;6.10;99.90;;;;;;4995178;28;20042;-68
2024/01/02 03:33:56;;;;;;;2.05;1.33;;;6.10;99.90;;;;;;4995394;28;20038;-68
2024/01/02 03:36:22;;;;;;;1.20;1.10;;;6.20;99.90;;;;;;4994707;28;20121;-68
2024/01/02 03:38:49;;;;;;;2.92;1.58;;;6.10;99.90;;;;;;4995300;28;20046;-68
2024/01/02 03:41:15;;;;;;;2.13;1.05;;;6.10;99.90;;;;;;4995216;28;20121;-68
2024/01/02 03:43:41;;;;;;;2.55;1.27;;;6.20;99.90;;;;;;4995293;28;20129;-68
2024/01/02 03:46:07;;;;;;;1.98;1.17;;;6.10;99.90;;;;;;4995171;28;20413;-68
2024/01/02 03:48:33;;;;;;;1.30;1.15;;;6.20;99.90;;;;;;4993779;28;20478;-67
2024/01/02 03:51:01;;;;;;;1.75;1.17;;;6.40;99.90;;;;;;4994897;28;20051;-66
2024/01/02 03:53:28;;;;;;;1.48;1.20;;;6.10;99.90;;;;;;4993746;28;20057;-67
2024/01/02 03:55:56;;;;;;;1.88;1.10;;;6.10;99.90;;;;;;4994965;28;20038;-67
2024/01/02 03:58:23;;;;;;;2.10;1.23;;;6.10;99.90;;;;;;4994890;28;20045;-67
2024/01/02 04:00:51;;;;;;;2.00;1.20;;;6.20;99.90;;;;;;4994824;28;20493;-67
2024/01/02 04:03:16;;;;;;;1.20;1.10;;;6.10;99.90;;;;;;4993352;28;20046;-67
2024/01/02 04:05:42;;;;;;;3.40;1.33;;;6.10;99.90;;;;;;4995122;28;20490;-67
2024/01/02 04:08:08;;;;;;;1.75;1.13;;;6.10;99.90;;;;;;4994743;28;20501;-67
2024/01/02 04:10:34;;;;;;;0.95;0.90;;;6.20;99.90;;;;;;4994470;28;20540;-67
2024/01/02 04:13:00;;;;;;;0.80;0.80;;;6.20;99.90;;;;;;4994297;28;20134;-68
2024/01/02 04:15:26;;;;;;;1.23;0.80;;;6.20;99.90;;;;;;4993367;28;20456;-68
2024/01/02 04:17:52;;;;;;;1.00;0.90;;;6.20;99.90;;;;;;4993065;28;20101;-68
2024/01/02 04:20:17;;;;;;;2.05;1.23;;;6.20;99.90;;;;;;4994232;28;20501;-69
2024/01/02 04:22:43;;;;;;;1.48;1.20;;;6.20;99.90;;;;;;4994432;28;20406;-68
2024/01/02 04:25:09;;;;;;;1.90;1.08;;;6.20;99.90;;;;;;4994450;28;20920;-66
2024/01/02 04:27:35;;;;;;;0.90;0.90;;;6.20;99.90;;;;;;4994166;28;20482;-66
2024/01/02 04:30:00;;;;;;;1.05;0.90;;;6.20;99.90;;;;;;4976886;28;20104;-67
2024/01/02 04:32:26;;;;;;;1.63;0.93;;;6.20;99.90;;;;;;4994296;28;20046;-67
2024/01/02 04:34:51;;;;;;;1.40;0.90;;;6.40;99.90;;;;;;4994252;28;20034;-67
2024/01/02 04:37:17;;;;;;;2.03;1.00;;;6.20;99.90;;;;;;4994190;28;20130;-68
2024/01/02 04:39:43;;;;;;;1.50;1.13;;;7.00;99.90;;;;;;4993962;28;20054;-68
2024/01/02 04:42:09;;;;;;;1.42;0.95;;;6.20;99.90;;;;;;4992566;28;20102;-68
2024/01/02 04:44:35;;;;;;;1.33;1.05;;;6.70;99.90;;;;;;4994145;28;20394;-68
2024/01/02 04:47:02;;;;;;;1.33;0.98;;;6.10;99.90;;;;;;4993708;28;20525;-68
2024/01/02 04:49:28;;;;;;;1.40;0.90;;;6.20;99.90;;;;;;4992642;28;20121;-68
2024/01/02 04:51:54;;;;;;;1.23;1.10;;;6.20;99.90;;;;;;4992530;28;20038;-68
2024/01/02 04:54:19;;;;;;;1.55;0.82;;;6.20;99.90;;;;;;4993629;28;20411;-68
2024/01/02 04:56:45;;;;;;;2.08;1.00;;;6.20;99.90;;;;;;4993888;28;20113;-68
2024/01/02 04:59:11;;;;;;;0.70;0.70;;;6.20;99.90;;;;;;4992673;28;20053;-67
2024/01/02 05:01:37;;;;;;;0.88;0.63;;;6.20;99.90;;;;;;4993919;28;20107;-68
2024/01/02 05:04:04;;;;;;;0.63;0.63;;;6.20;99.90;;;;;;4993811;28;20046;-68
2024/01/02 05:06:30;;;;;;;0.85;0.80;;;6.10;99.90;;;;;;4993840;28;20042;-67
2024/01/02 05:08:56;;;;;;;0.80;0.80;;;6.20;99.90;;;;;;4993523;28;20442;-68
2024/01/02 05:11:22;;;;;;;1.02;0.93;;;6.50;99.90;;;;;;4993833;28;20049;-68
2024/01/02 05:13:48;;;;;;;0.88;0.70;;;6.20;99.90;;;;;;4992198;28;20506;-68
2024/01/02 05:16:14;;;;;;;0.70;0.70;;;6.20;99.90;;;;;;4993761;28;20054;-68
2024/01/02 05:18:40;;;;;;;1.35;0.73;;;6.20;99.90;;;;;;4992215;28;20049;-68
2024/01/02 05:21:07;;;;;;;0.82;0.73;;;6.20;99.90;;;;;;4992397;28;20068;-68
2024/01/02 05:23:33;;;;;;;0.75;0.70;;;6.20;99.90;;;;;;4993676;28;20031;-68
2024/01/02 05:25:59;;;;;;;1.05;0.70;;;6.20;99.90;;;;;;4992087;28;20046;-69
2024/01/02 05:28:24;;;;;;;0.77;0.70;;;6.20;99.90;;;;;;4992033;28;20042;-67
2024/01/02 05:30:50;;;;;;;0.77;0.70;;;6.20;99.90;;;;;;4993558;28;20053;-67
2024/01/02 05:33:16;;;;;;;0.70;0.70;;;6.20;99.90;;;;;;4993231;28;20035;-67
2024/01/02 05:35:41;;;;;;;1.33;0.82;;;6.20;99.90;;;;;;4992055;28;20081;-67
2024/01/02 05:38:07;;;;;;;0.80;0.70;;;6.70;99.90;;;;;;4993597;28;20051;-68
2024/01/02 05:40:33;;;;;;;0.63;0.63;;;6.20;99.90;;;;;;4976128;28;20082;-68
2024/01/02 05:42:58;;;;;;;0.70;0.70;;;6.20;99.90;;;;;;4993069;28;20505;-68
2024/01/02 05:45:24;;;;;;;0.75;0.75;;;6.20;99.90;;;;;;4993163;28;20097;-68
2024/01/02 05:47:50;;;;;;;1.77;0.95;;;6.20;99.90;;;;;;4993165;28;20035;-68
2024/01/02 05:50:15;;;;;;;0.63;0.60;;;6.20;99.90;;;;;;4993141;28;20049;-68
2024/01/02 05:52:44;;;;;;;1.00;0.65;;;6.20;99.90;;;;;;4993143;28;20045;-68
2024/01/02 05:55:10;;;;;;;1.02;0.60;;;6.30;99.90;;;;;;4993177;28;20085;-67
2024/01/02 05:57:35;;;;;;;0.60;0.60;;;6.20;99.90;;;;;;4993141;28;20035;-68
2024/01/02 06:00:02;;;;;;;0.60;0.60;;;6.20;99.90;;;;;;4995834;28;20453;-67
2024/01/02 06:02:27;;;;;;;0.63;0.63;;;6.20;99.90;;;;;;4996839;28;20061;-68
2024/01/02 06:04:53;;;;;;;0.57;0.57;;;6.20;99.90;;;;;;4997007;28;20034;-67
2024/01/02 06:07:19;;;;;;;0.70;0.70;;;6.30;99.90;;;;;;4996650;28;20038;-68
2024/01/02 06:09:44;;;;;;;1.10;0.60;;;6.30;99.90;;;;;;4995497;28;20093;-67
2024/01/02 06:12:10;;;;;;;0.63;0.63;;;6.50;99.90;;;;;;4995368;28;20097;-68
2024/01/02 06:14:37;;;;;;;0.65;0.65;;;6.50;99.90;;;;;;4996858;28;20053;-68
2024/01/02 06:17:03;;;;;;;0.63;0.63;;;6.20;99.90;;;;;;4996842;28;20120;-68
2024/01/02 06:19:29;;;;;;;0.73;0.73;;;6.30;99.90;;;;;;4995287;28;20042;-68
2024/01/02 06:21:55;;;;;;;0.55;0.55;;;6.30;99.90;;;;;;4996592;28;20047;-68
2024/01/02 06:24:21;;;;;;;0.88;0.60;;;6.20;99.90;;;;;;4996719;28;20050;-69
2024/01/02 06:26:46;;;;;;;0.63;0.63;;;6.20;99.90;;;;;;4996388;28;20082;-66
2024/01/02 06:29:12;;;;;;;0.50;0.50;;;6.30;99.90;;;;;;4996568;28;20109;-67
2024/01/02 06:31:38;;;;;;;0.50;0.50;;;6.20;99.90;;;;;;4996657;28;20045;-67
2024/01/02 06:34:03;;;;;;;0.55;0.55;;;6.20;99.90;;;;;;4996517;28;20048;-66
2024/01/02 06:36:29;;;;;;;0.68;0.68;;;6.30;99.90;;;;;;4995204;28;20080;-67
2024/01/02 06:38:54;;;;;;;0.45;0.45;;;6.30;99.90;;;;;;4996419;28;20084;-66
2024/01/02 06:41:20;;;;;;;0.50;0.50;;;6.50;99.90;;;;;;4994697;28;20073;-67
2024/01/02 06:43:46;;;;;;;0.50;0.50;;;6.40;99.90;;;;;;4996236;28;20510;-67
2024/01/02 06:46:12;;;;;;;0.50;0.50;;;6.40;99.90;;;;;;4995931;28;20049;-67
2024/01/02 06:48:39;;;;;;;0.50;0.50;;;6.40;99.90;;;;;;4996212;28;20031;-67
2024/01/02 06:51:06;;;;;;;0.45;0.45;;;6.80;99.90;;;;;;4994744;28;20053;-68
2024/01/02 06:53:31;;;;;;;0.45;0.45;;;6.40;99.90;;;;;;4996106;28;20050;-66
2024/01/02 06:55:57;;;;;;;0.50;0.50;;;6.30;99.90;;;;;;4995789;28;20406;-67
2024/01/02 06:58:23;;;;;;;0.57;0.57;;;6.40;99.90;;;;;;4996023;28;20046;-67
2024/01/02 07:00:48;;;;;;;0.60;0.60;;;6.40;99.90;;;;;;4995938;28;20046;-67
2024/01/02 07:03:14;;;;;;;0.40;0.40;;;6.40;99.90;;;;;;4995978;28;20058;-68
2024/01/02 07:05:39;;;;;;;0.40;0.40;;;6.40;99.90;;;;;;4978256;28;20407;-67
2024/01/02 07:08:05;;;;;;;0.50;0.50;;;6.40;99.90;;;;;;4995854;28;20048;-68
2024/01/02 07:10:31;;;;;;;0.40;0.40;;;6.50;99.90;;;;;;4994949;28;20482;-67
2024/01/02 07:12:57;;;;;;;0.60;0.60;;;6.70;99.90;;;;;;4995350;28;20058;-71
2024/01/02 07:15:22;;;;;;;0.50;0.50;;;6.50;99.90;;;;;;4978276;28;20100;-66
2024/01/02 07:17:48;;;;;;;0.40;0.40;;;6.50;99.90;;;;;;4994434;28;20046;-67
2024/01/02 07:20:14;;;;;;;0.40;0.40;;;6.50;99.90;;;;;;4994110;28;20074;-70
2024/01/02 07:22:39;;;;;;;0.40;0.40;;;6.50;99.90;;;;;;4994056;28;20399;-65
2024/01/02 07:25:06;;;;;;;0.50;0.50;;;6.70;99.90;;;;;;4995211;28;20038;-65
2024/01/02 07:27:31;;;;;;;0.50;0.50;;;6.50;99.90;;;;;;4995472;28;20121;-65
2024/01/02 07:29:57;;;;;;;0.57;0.57;;;6.60;99.90;;;;;;4995156;28;20117;-65
2024/01/02 07:32:22;;;;;;;0.50;0.50;;;6.80;99.90;;;;;;4995488;28;20089;-65
2024/01/02 07:34:48;;;;;;;0.50;0.50;;;7.00;99.90;;;;;;4995387;28;20042;-65
2024/01/02 07:37:14;;;;;;;0.55;0.55;;;6.60;99.90;;;;;;4995334;28;20038;-65
2024/01/02 07:39:41;;;;;;;0.43;0.43;;;6.70;99.90;;;;;;4995284;28;20130;-65
2024/01/02 07:42:08;;;;;;;0.63;0.50;;;7.00;99.90;;;;;;4994832;28;20403;-65
2024/01/02 07:44:35;;;;;;;0.43;0.43;;;6.80;99.90;;;;;;4994384;28;20121;-65
2024/01/02 07:47:01;;;;;;;0.40;0.40;;;6.80;99.90;;;;;;4993967;28;20038;-65
2024/01/02 07:49:27;;;;;;;0.50;0.50;;;6.80;99.90;;;;;;4992535;28;20038;-66
2024/01/02 07:51:53;;;;;;;0.50;0.50;;;6.90;99.90;;;;;;4993711;28;20046;-66
2024/01/02 07:54:19;;;;;;;0.40;0.40;;;6.90;99.90;;;;;;4993788;28;20159;-66
2024/01/02 07:56:45;;;;;;;0.50;0.50;;;7.00;99.90;;;;;;4994043;28;20073;-68
2024/01/02 07:59:15;;;;;;;0.55;0.55;;;7.00;99.90;;;;;;4993594;28;20042;-65
2024/01/02 08:01:41;;;;;;;0.50;0.50;;;7.00;99.90;;;;;;4993481;28;20049;-65
2024/01/02 08:04:07;;;;;;;0.52;0.52;;;7.10;99.90;;;;;;4993869;28;20038;-65
2024/01/02 08:06:33;;;;;;;0.60;0.60;;;7.40;99.90;;;;;;4993910;28;20042;-70
2024/01/02 08:08:58;;;;;;;0.50;0.50;;;7.10;99.90;;;;;;4993506;28;20372;-70
2024/01/02 08:11:24;;;;;;;0.50;0.50;;;7.10;99.90;;;;;;4992608;28;20062;-69
2024/01/02 08:13:49;;;;;;;0.50;0.50;;;7.20;99.90;;;;;;4992133;28;20097;-67
2024/01/02 08:16:15;;;;;;;0.57;0.57;;;7.30;99.90;;;;;;4993353;28;20054;-66
2024/01/02 08:18:41;;;;;;;0.60;0.60;;;7.30;99.90;;;;;;4993372;28;20049;-67
2024/01/02 08:21:10;;;;;;;0.60;0.60;;;7.40;99.90;;;;;;4993467;28;20334;-66
2024/01/02 08:23:38;;;;;;;0.60;0.60;;;7.50;99.90;;;;;;4992546;28;20030;-66
2024/01/02 08:26:05;;;;;;;0.68;0.68;;;7.70;99.90;;;;;;4993480;28;20533;-68
2024/01/02 08:28:31;;;;;;;0.80;0.80;;;7.60;99.90;;;;;;4992095;28;20046;-66
2024/01/02 08:30:57;;;;;;;0.73;0.73;;;7.60;99.90;;;;;;4993360;28;20039;-66
2024/01/02 08:33:22;;;;;;;1.38;1.27;;;8.00;99.90;;;;;;4993124;28;20121;-66
2024/01/02 08:35:48;;;;;;;1.13;1.02;;;7.80;99.90;;;;;;4993217;28;20070;-66
2024/01/02 08:38:14;;;;;;;1.20;1.10;;;8.10;99.90;;;;;;4993393;28;20042;-67
2024/01/02 08:40:39;;;;;;;2.60;1.15;;;8.00;99.90;;;;;;4993190;28;20486;-68
2024/01/02 08:43:05;;;;;;;1.23;1.13;;;8.10;99.90;;;;;;4992889;28;20038;-66
2024/01/02 08:45:30;;;;;;;1.30;1.20;;;8.20;99.90;;;;;;4993236;28;20042;-67
2024/01/02 08:47:56;;;;;;;1.23;1.00;;;;;;;;;;4993211;28;20042;-66
2024/01/02 08:50:23;;;;;;;1.50;1.10;;;;;;;;;;4993200;28;20046;-66
2024/01/02 08:52:49;;;;;;;1.17;1.10;;;8.60;99.90;;;;;;4993006;28;20045;-66
2024/01/02 08:55:15;;;;;;;0.93;0.93;;;8.80;99.90;;;;;;4992890;28;20050;-67
2024/01/02 08:57:40;;;;;;;2.00;1.27;;;8.70;99.90;;;;;;4992830;28;20125;-66
2024/01/02 09:00:07;;;;;;;2.22;1.17;;;8.90;99.90;;;;;;4993035;28;20038;-67
2024/01/02 09:02:33;;;;;;;2.08;1.13;;;8.90;99.90;;;;;;4992917;28;20048;-66
2024/01/02 09:04:59;;;;;;;1.27;1.10;;;8.90;99.90;;;;;;4993012;28;20050;-66
2024/01/02 09:07:25;;;;;;;0.93;0.80;;;9.00;99.90;;;;;;4992660;28;20391;-66
2024/01/02 09:09:50;;;;;;;0.93;0.93;;;9.10;99.90;;;;;;4992852;28;20113;-66
2024/01/02 09:12:16;;;;;;;5.82;1.65;;;9.30;99.90;;;;;;4992706;28;20035;-66
2024/01/02 09:14:42;;;;;;;1.02;0.93;;;9.20;99.90;;;;;;4992899;28;20049;-66
2024/01/02 09:17:08;;;;;;;2.13;1.05;;;9.30;99.90;;;;;;4992861;28;20133;-66
2024/01/02 09:19:34;;;;;;;1.25;0.80;;;9.40;99.90;;;;;;4993120;28;20568;-66
2024/01/02 09:22:00;;;;;;;2.53;1.10;;;9.70;99.90;;;;;;4992780;28;20464;-66
2024/01/02 09:24:28;;;;;;;1.50;1.17;;;9.60;99.90;;;;;;4991604;28;20081;-68
2024/01/02 09:26:57;;;;;;;1.40;1.30;;;9.60;99.90;;;;;;4992461;28;20048;-69
2024/01/02 09:29:24;;;;;;;4.13;1.52;;;9.60;99.90;;;;;;4992687;28;20097;-68
2024/01/02 09:31:50;;;;;;;2.25;0.90;;;9.70;99.90;;;;;;4991474;28;20050;-71
2024/01/02 09:34:16;;;;;;;1.33;0.95;;;9.70;99.90;;;;;;4994478;28;20089;-66
2024/01/02 09:36:41;;;;;;;2.58;1.20;;;9.70;99.90;;;;;;4996361;28;20061;-66
2024/01/02 09:39:08;;;;;;;2.88;1.65;;;10.10;99.90;;;;;;4996644;28;20034;-66
2024/01/02 09:41:46;;;;;;;3.50;1.42;;;9.90;99.90;;;;;;4996311;28;20430;-66
2024/01/02 09:44:32;;;;;;;1.42;1.02;;;9.80;99.90;;;;;;4996712;28;20034;-66
2024/01/02 09:47:26;;;;;;;2.90;1.10;;;9.80;99.90;;;;;;4996147;28;20038;-66
2024/01/02 09:50:04;;;;;;;1.95;1.02;;;9.80;99.90;;;;;;4991131;28;20084;-66
2024/01/02 09:52:30;;;;;;;3.08;1.00;;;9.90;99.90;;;;;;4978644;28;20061;-66
2024/01/02 09:55:04;;;;;;;3.10;1.27;;;9.90;99.90;;;;;;4996366;28;20042;-66
2024/01/02 09:57:46;;;;;;;2.70;1.38;;;10.00;99.90;;;;;;4996066;28;20049;-66
2024/01/02 10:00:25;;;;;;;3.08;1.52;;;10.00;99.90;;;;;;4996296;28;20510;-66
2024/01/02 10:03:10;;;;;;;2.50;1.10;;;10.10;99.90;;;;;;4995835;28;20086;-66
2024/01/02 10:05:42;;;;;;;2.92;1.42;;;10.20;99.90;;;;;;4996183;28;20074;-66
2024/01/02 10:08:33;;;;;;;2.33;1.25;;;10.20;99.90;;;;;;4995785;28;20086;-66
2024/01/02 10:11:28;;;;;;;2.75;1.05;;;10.20;99.90;;;;;;4995764;28;20104;-67
2024/01/02 10:14:15;;;;;;;2.83;1.30;;;10.30;99.90;;;;;;4995569;28;20062;-66
2024/01/02 10:16:53;;;;;;;3.45;1.70;;;10.30;99.90;;;;;;4995943;28;20466;-66
2024/01/02 10:19:25;;;;;;;2.67;1.30;;;10.60;99.90;;;;;;4995839;28;20046;-66
2024/01/02 10:22:11;;;;;;;2.72;1.17;;;10.40;99.90;;;;;;4995793;28;20398;-68
2024/01/02 10:24:50;;;;;;;2.70;1.20;;;10.70;99.90;;;;;;4995788;28;20034;-66
2024/01/02 10:27:25;;;;;;;4.15;1.38;;;10.40;99.90;;;;;;4995762;28;20542;-66
2024/01/02 10:30:07;;;;;;;3.95;1.50;;;10.40;99.90;;;;;;4995669;28;20092;-66
2024/01/02 10:32:58;;;;;;;2.90;1.20;;;10.40;99.90;;;;;;4995690;28;20046;-68
2024/01/02 10:35:34;;;;;;;1.13;1.00;;;10.40;99.90;;;;;;4995595;28;20423;-68
2024/01/02 10:38:22;;;;;;;4.03;1.77;;;10.50;99.90;;;;;;4995242;28;20050;-68
2024/01/02 10:41:06;;;;;;;1.73;1.38;;;10.40;99.90;;;;;;4995396;28;20038;-68
2024/01/02 10:43:51;;;;;;;2.85;1.52;;;10.50;99.90;;;;;;4995484;28;20041;-67
2024/01/02 10:46:47;;;;;;;1.75;1.17;;;10.50;99.90;;;;;;4994353;28;20030;-68
2024/01/02 10:49:34;;;;;;;2.83;1.63;;;10.50;99.90;;;;;;4995387;28;20089;-67
2024/01/02 10:52:08;;;;;;;1.83;1.17;;;10.50;99.90;;;;;;4995466;28;20042;-68
2024/01/02 10:54:59;;;;;;;1.67;1.10;;;10.60;99.90;;;;;;4996109;28;20053;-69
2024/01/02 10:58:06;;;;;;;2.20;1.20;;;10.60;99.90;;;;;;4995602;28;20057;-68
2024/01/02 11:00:40;;;;;;;2.65;1.20;;;10.60;99.90;;;;;;4987786;28;20057;-68
2024/01/02 11:03:11;;;;;;;1.65;1.10;;;10.60;99.90;;;;;;4995042;28;20038;-68
2024/01/02 11:05:42;;;;;;;4.05;1.63;;;10.60;99.90;;;;;;4995127;28;20413;-67
2024/01/02 11:08:25;;;;;;;1.90;1.08;;;10.60;99.90;;;;;;4994998;28;20046;-67
2024/01/02 11:11:04;;;;;;;3.85;1.45;;;10.70;99.90;;;;;;4993761;28;20066;-67
2024/01/02 11:13:30;;;;;;;4.03;1.77;;;10.70;99.90;;;;;;4994603;28;20061;-67
2024/01/02 11:16:18;;;;;;;2.95;1.30;;;10.80;99.90;;;;;;4994845;28;20494;-69
2024/01/02 11:18:54;;;;;;;3.55;1.58;;;10.80;99.90;;;;;;4993719;28;20093;-67
2024/01/02 11:21:36;;;;;;;2.80;1.23;;;10.80;99.90;;;;;;4994721;28;20049;-67
2024/01/02 11:24:05;;;;;;;3.28;1.10;;;10.80;99.90;;;;;;4993428;28;20438;-68
2024/01/02 11:26:40;;;;;;;2.30;1.58;;;10.90;99.90;;;;;;4994323;28;20035;-68
2024/01/02 11:29:28;;;;;;;2.10;1.15;;;10.90;99.90;;;;;;4993105;28;20379;-68
2024/01/02 11:31:55;;;;;;;2.58;1.38;;;10.90;99.90;;;;;;4994248;28;20046;-68
2024/01/02 11:34:27;;;;;;;2.20;1.42;;;10.90;99.90;;;;;;4994248;28;20085;-68
2024/01/02 11:37:12;;;;;;;1.85;1.20;;;11.00;99.90;;;;;;4994184;28;20121;-68
2024/01/02 11:39:46;;;;;;;3.22;1.48;;;10.90;99.90;;;;;;4994103;28;20125;-70
2024/01/02 11:42:43;;;;;;;2.58;1.20;;;10.90;99.90;;;;;;4994344;28;20042;-66
2024/01/02 11:45:16;;;;;;;4.32;1.73;;;10.90;99.90;;;;;;4994255;28;20479;-67
2024/01/02 11:47:58;;;;;;;3.20;1.50;;;10.90;99.90;;;;;;4993995;28;20039;-66
2024/01/02 11:50:35;;;;;;;3.38;1.30;;;10.90;99.90;;;;;;4994240;28;20038;-66
2024/01/02 11:53:05;;;;;;;3.13;1.67;;;10.90;99.90;;;;;;4993875;28;20089;-68
2024/01/02 11:55:58;;;;;;;4.07;1.40;;;10.90;99.90;;;;;;4994181;28;20410;-65
2024/01/02 11:58:42;;;;;;;3.00;1.40;;;10.80;99.90;;;;;;4992708;28;20669;-66
2024/01/02 12:01:23;;;;;;;2.33;1.40;;;10.90;99.90;;;;;;4993926;28;20470;-65
2024/01/02 12:04:01;;;;;;;2.95;1.73;;;10.90;99.90;;;;;;4993820;28;20050;-67
2024/01/02 12:06:57;;;;;;;2.72;1.60;;;10.80;99.90;;;;;;4993674;28;20101;-67
2024/01/02 12:09:28;;;;;;;3.42;1.42;;;10.80;99.90;;;;;;4993660;28;20040;-67
2024/01/02 12:12:10;;;;;;;2.08;1.38;;;10.80;99.90;;;;;;4993649;28;20169;-67
2024/01/02 12:14:48;;;;;;;4.32;2.08;;;10.80;99.90;;;;;;4993836;28;20057;-72
2024/01/02 12:17:20;;;;;;;3.13;1.58;;;10.80;99.90;;;;;;4992482;28;20513;-68
2024/01/02 12:19:49;;;;;;;3.97;1.70;;;10.70;99.90;;;;;;4993667;28;20049;-67
2024/01/02 12:22:15;;;;;;;2.83;1.20;;;10.60;99.90;;;;;;4993650;28;20418;-67
2024/01/02 12:24:42;;;;;;;4.43;2.00;;;10.70;99.90;;;;;;4993646;28;20038;-67
2024/01/02 12:27:12;;;;;;;3.10;1.55;;;10.70;99.90;;;;;;4993337;28;20073;-67
2024/01/02 12:29:48;;;;;;;3.90;1.77;;;10.70;99.90;;;;;;4993295;28;20061;-67
2024/01/02 12:32:41;;;;;;;3.97;1.77;;;10.60;99.90;;;;;;4993295;28;20410;-67
2024/01/02 12:35:22;;;;;;;2.22;1.63;;;10.60;99.90;;;;;;4993405;28;20042;-67
2024/01/02 12:38:03;;;;;;;5.30;1.95;;;10.60;99.90;;;;;;4993422;28;20067;-69
2024/01/02 12:40:31;;;;;;;3.45;1.80;;;10.60;99.90;;;;;;4992113;28;20054;-66
2024/01/02 12:42:59;;;;;;;1.98;1.55;;;10.60;99.90;;;;;;4993279;28;20052;-67
2024/01/02 12:45:33;;;;;;;3.72;2.03;;;10.60;99.90;;;;;;4993245;28;20049;-67
2024/01/02 12:48:05;;;;;;;3.30;1.80;;;10.60;99.90;;;;;;4993232;28;20050;-67
2024/01/02 12:50:34;;;;;;;4.05;1.98;;;10.60;99.90;;;;;;4992914;28;20069;-69
2024/01/02 12:53:07;;;;;;;3.50;1.45;;;10.50;99.90;;;;;;4993050;28;20049;-65
2024/01/02 12:55:36;;;;;;;3.97;1.60;;;10.60;99.90;;;;;;4993162;28;20427;-65
2024/01/02 12:58:06;;;;;;;3.38;1.50;;;10.60;99.90;;;;;;4993122;28;20482;-65
2024/01/02 13:00:32;;;;;;;4.55;2.38;;;10.60;99.90;;;;;;4993075;28;20066;-64
2024/01/02 13:02:58;;;;;;;5.35;3.10;;;10.50;99.90;;;;;;4993047;28;20568;-64
2024/01/02 13:05:26;;;;;;;4.13;1.90;;;10.50;99.90;;;;;;4993049;28;20034;-64